Westville, New York
Current Conditions -  °F | °C
As of 12:35 AM on Monday 20 Oct 2014 (Local Time) from KNY0 Reporting Station
Clear Clear  
Wind Chill: 25°   Ceiling: Unl
Heat Index: 31°   Visibility: 10mi
Dew Point: 27°   Wind: 6mph
Humidity: 85%   Direction: 220°SW
Pressure: 30.01"   Gusts: NA
Location:  42.6052°N, 74.8141°W
Report Text: KNY0 200435Z AUTO 22005KT 10SM CLR M01/M03 A3001 RMK AO2 T10061028
Loading
Personal Weather Stations






























Interactive Weather Map
Tropical Storm Tracking
New forecast layout! Learn more

10-Day Weather Forecast

Advertisements
Track Severe Weather on mobile